Time;durP1;ratioP1;P1;durP2;ratioP2;P2;SDS_P1;SDS_P2;PMS_P1;PMS_P2;Temp;Humidity;BMP_temperature;BMP_pressure;BME280_temperature;BME280_humidity;BME280_pressure;Samples;Min_cycle;Max_cycle;Signal;HPM_P1;HPM_P2
2022/09/05 00:01:34;;;;;;;7.57;4.88;;;20.10;97.50;;;;;;5027594;28;20475;-73
2022/09/05 00:04:35;;;;;;;7.03;4.55;;;20.10;97.60;;;;;;5034989;28;20049;-72
2022/09/05 00:07:27;;;;;;;8.32;5.20;;;20.10;97.90;;;;;;5026151;28;20087;-73
2022/09/05 00:10:27;;;;;;;9.73;4.65;;;20.00;97.60;;;;;;5007569;28;20056;-72
2022/09/05 00:12:56;;;;;;;5.45;4.57;;;20.00;97.90;;;;;;5034644;28;20079;-72
2022/09/05 00:16:06;;;;;;;6.90;4.68;;;20.00;97.80;;;;;;5034223;28;20037;-73
2022/09/05 00:18:57;;;;;;;6.80;5.00;;;20.00;98.10;;;;;;4990314;28;20049;-72
2022/09/05 00:21:33;;;;;;;9.65;5.07;;;19.90;98.40;;;;;;5034539;28;20079;-73
2022/09/05 00:24:21;;;;;;;6.00;4.75;;;19.90;98.30;;;;;;5034134;28;20582;-72
2022/09/05 00:26:59;;;;;;;5.10;4.60;;;19.90;98.70;;;;;;5034347;28;20053;-73
2022/09/05 00:29:58;;;;;;;7.32;5.20;;;19.90;98.60;;;;;;5024724;28;20176;-73
2022/09/05 00:32:46;;;;;;;7.00;4.97;;;19.80;98.80;;;;;;5034461;28;20097;-73
2022/09/05 00:35:35;;;;;;;7.72;5.05;;;19.80;98.90;;;;;;5033307;28;20122;-72
2022/09/05 00:38:15;;;;;;;7.55;4.88;;;19.80;99.00;;;;;;5034288;28;20038;-73
2022/09/05 00:40:57;;;;;;;8.05;4.68;;;19.70;99.00;;;;;;5033731;28;20072;-73
2022/09/05 00:43:30;;;;;;;8.95;5.57;;;19.70;99.20;;;;;;5034384;28;20045;-73
2022/09/05 00:46:11;;;;;;;6.38;5.30;;;19.70;99.30;;;;;;5028607;28;20049;-73
2022/09/05 00:49:05;;;;;;;8.88;5.38;;;19.60;99.60;;;;;;5038148;28;20533;-73
2022/09/05 00:51:54;;;;;;;8.07;5.15;;;19.60;99.90;;;;;;5038037;28;20083;-72
2022/09/05 00:54:22;;;;;;;15.05;5.32;;;19.60;99.90;;;;;;5038176;28;20073;-73
2022/09/05 00:56:57;;;;;;;6.57;4.93;;;19.60;99.90;;;;;;5038104;28;20049;-73
2022/09/05 01:00:16;;;;;;;7.63;5.57;;;19.60;99.90;;;;;;5028106;28;20394;-73
2022/09/05 01:03:16;;;;;;;8.93;5.80;;;19.50;99.90;;;;;;4957771;29;20035;-73
2022/09/05 01:06:00;;;;;;;7.00;5.13;;;19.40;99.90;;;;;;5030660;28;20048;-72
2022/09/05 01:08:52;;;;;;;8.77;5.22;;;19.40;99.90;;;;;;5038169;28;20117;-73
2022/09/05 01:11:45;;;;;;;7.78;5.47;;;19.40;99.90;;;;;;5037749;28;20045;-73
2022/09/05 01:14:45;;;;;;;7.45;5.82;;;19.40;99.90;;;;;;5036673;28;20041;-73
2022/09/05 01:17:29;;;;;;;15.52;5.40;;;19.40;99.90;;;;;;5037109;28;20049;-73
2022/09/05 01:20:16;;;;;;;7.65;5.20;;;19.30;99.90;;;;;;5037711;28;20056;-72
2022/09/05 01:22:57;;;;;;;7.00;5.22;;;19.30;99.90;;;;;;5037580;28;20095;-73
2022/09/05 01:25:22;;;;;;;7.22;5.53;;;19.30;99.90;;;;;;5031497;28;20045;-73
2022/09/05 01:28:05;;;;;;;7.97;5.43;;;19.30;99.90;;;;;;5037604;28;20033;-72
2022/09/05 01:30:46;;;;;;;7.43;5.60;;;19.30;99.90;;;;;;5037616;28;20041;-73
2022/09/05 01:33:43;;;;;;;6.25;5.65;;;19.30;99.90;;;;;;5037099;28;20463;-73
2022/09/05 01:36:22;;;;;;;6.85;5.68;;;19.30;99.90;;;;;;5019914;28;20075;-72
2022/09/05 01:39:11;;;;;;;7.95;5.47;;;19.20;99.90;;;;;;5037534;28;20444;-72
2022/09/05 01:41:57;;;;;;;7.20;5.93;;;19.20;99.90;;;;;;5029072;28;20116;-72
2022/09/05 01:44:54;;;;;;;9.57;5.40;;;19.20;99.90;;;;;;5036734;28;20099;-72
2022/09/05 01:47:36;;;;;;;7.68;6.45;;;19.20;99.90;;;;;;5033650;28;20049;-73
2022/09/05 01:50:18;;;;;;;12.30;6.90;;;19.20;99.90;;;;;;5019596;28;20349;-73
2022/09/05 01:53:07;;;;;;;9.80;6.50;;;19.10;99.90;;;;;;5019753;28;20096;-73
2022/09/05 01:55:50;;;;;;;7.63;6.47;;;19.10;99.90;;;;;;5036632;28;20422;-73
2022/09/05 01:58:28;;;;;;;7.70;6.28;;;19.10;99.90;;;;;;5036744;28;20489;-72
2022/09/05 02:01:05;;;;;;;10.52;7.43;;;19.10;99.90;;;;;;5037193;28;20087;-73
2022/09/05 02:03:49;;;;;;;10.93;6.85;;;19.00;99.90;;;;;;5036869;28;20051;-73
2022/09/05 02:06:28;;;;;;;7.28;6.22;;;19.00;99.90;;;;;;5036442;28;20056;-72
2022/09/05 02:08:56;;;;;;;7.70;6.70;;;19.00;99.90;;;;;;5003053;28;20045;-72
2022/09/05 02:11:38;;;;;;;9.05;7.00;;;18.90;99.90;;;;;;5026516;28;20052;-73
2022/09/05 02:14:22;;;;;;;7.45;6.75;;;18.90;99.90;;;;;;5036585;28;20049;-72
2022/09/05 02:16:49;;;;;;;9.77;7.13;;;18.90;99.90;;;;;;5036516;28;20042;-73
2022/09/05 02:19:27;;;;;;;10.35;7.18;;;18.90;99.90;;;;;;5036584;28;20513;-73
2022/09/05 02:22:00;;;;;;;14.07;7.45;;;18.80;99.90;;;;;;5026547;28;20045;-72
2022/09/05 02:24:31;;;;;;;14.80;6.70;;;18.80;99.90;;;;;;5045341;28;20068;-72
2022/09/05 02:27:12;;;;;;;7.95;7.00;;;18.80;99.90;;;;;;5039198;28;20372;-73
2022/09/05 02:29:49;;;;;;;10.13;7.68;;;18.80;99.90;;;;;;5037846;28;20068;-72
2022/09/05 02:32:27;;;;;;;8.25;7.32;;;18.80;99.90;;;;;;5048400;28;20053;-73
2022/09/05 02:35:12;;;;;;;9.85;7.15;;;18.80;99.90;;;;;;5039128;28;20041;-73
2022/09/05 02:37:47;;;;;;;8.82;6.90;;;18.70;99.90;;;;;;5038309;28;20501;-72
2022/09/05 02:40:19;;;;;;;9.30;6.95;;;18.70;99.90;;;;;;5037716;28;20360;-73
2022/09/05 02:42:54;;;;;;;11.32;7.50;;;18.70;99.90;;;;;;5038582;28;20104;-72
2022/09/05 02:45:57;;;;;;;12.35;7.47;;;18.60;99.90;;;;;;5038751;28;20055;-72
2022/09/05 02:48:46;;;;;;;13.02;8.80;;;18.60;99.90;;;;;;5038728;28;20183;-73
2022/09/05 02:51:36;;;;;;;7.75;6.97;;;18.60;99.90;;;;;;5038818;28;20045;-73
2022/09/05 02:54:07;;;;;;;10.18;7.43;;;18.60;99.90;;;;;;5038765;28;20420;-73
2022/09/05 02:56:44;;;;;;;8.70;6.90;;;18.60;99.90;;;;;;5037369;28;20128;-73
2022/09/05 02:59:42;;;;;;;14.25;7.53;;;18.50;99.90;;;;;;5053954;28;20043;-72
2022/09/05 03:02:35;;;;;;;8.27;7.47;;;18.50;99.90;;;;;;5042283;28;20436;-72
2022/09/05 03:05:06;;;;;;;8.65;7.53;;;18.40;99.90;;;;;;5052717;28;20382;-72
2022/09/05 03:07:44;;;;;;;11.50;7.82;;;18.40;99.90;;;;;;5018136;28;20052;-72
2022/09/05 03:10:25;;;;;;;10.32;7.68;;;18.40;99.90;;;;;;5037008;28;20053;-72
2022/09/05 03:13:27;;;;;;;10.55;8.65;;;18.40;99.90;;;;;;5047799;28;20077;-72
2022/09/05 03:16:21;;;;;;;9.43;8.38;;;18.30;99.90;;;;;;5044186;28;20402;-72
2022/09/05 03:19:24;;;;;;;10.10;8.07;;;18.40;99.90;;;;;;5047686;28;20042;-72
2022/09/05 03:22:26;;;;;;;12.35;8.20;;;18.30;99.90;;;;;;5047364;28;20383;-72
2022/09/05 03:25:16;;;;;;;10.65;7.22;;;18.30;99.90;;;;;;5048171;28;20053;-72
2022/09/05 03:28:28;;;;;;;9.88;7.70;;;18.20;99.90;;;;;;5058307;28;20049;-71
2022/09/05 03:31:27;;;;;;;9.55;7.07;;;18.20;99.90;;;;;;5041045;28;20135;-71
2022/09/05 03:34:14;;;;;;;8.57;7.68;;;18.20;99.90;;;;;;5048230;28;20056;-72
2022/09/05 03:37:04;;;;;;;9.80;7.72;;;18.10;99.90;;;;;;5057584;28;20041;-71
2022/09/05 03:39:49;;;;;;;12.45;7.68;;;18.10;99.90;;;;;;5053078;28;20045;-72
2022/09/05 03:42:46;;;;;;;9.30;7.57;;;18.10;99.90;;;;;;5042856;28;20407;-72
2022/09/05 03:45:38;;;;;;;8.57;7.35;;;18.10;99.90;;;;;;5041215;28;20462;-72
2022/09/05 03:48:23;;;;;;;9.55;8.00;;;18.10;99.90;;;;;;5037160;28;20053;-72
2022/09/05 03:51:18;;;;;;;10.68;7.78;;;18.00;99.90;;;;;;5036796;28;20075;-73
2022/09/05 03:53:49;;;;;;;;;;;18.00;99.90;;;;;;5037194;28;20092;-72
2022/09/05 03:56:41;;;;;;;9.48;7.63;;;17.90;99.90;;;;;;5052818;28;19975;-72
2022/09/05 03:59:33;;;;;;;9.20;7.88;;;17.90;99.90;;;;;;5051669;28;20044;-72
2022/09/05 04:02:05;;;;;;;9.63;8.30;;;17.90;99.90;;;;;;5018000;28;20052;-72
2022/09/05 04:04:40;;;;;;;10.82;8.00;;;17.90;99.90;;;;;;5051714;28;20041;-73
2022/09/05 04:07:28;;;;;;;9.32;8.38;;;17.90;99.90;;;;;;5019091;28;20122;-72
2022/09/05 04:10:06;;;;;;;9.13;8.15;;;17.90;99.90;;;;;;5053428;28;20041;-72
2022/09/05 04:13:13;;;;;;;9.80;8.80;;;17.90;99.90;;;;;;5038570;28;20080;-72
2022/09/05 04:16:08;;;;;;;9.27;8.30;;;17.80;99.90;;;;;;5028948;28;20067;-72
2022/09/05 04:18:41;;;;;;;9.98;8.57;;;17.80;99.90;;;;;;5051419;28;20041;-72
2022/09/05 04:21:25;;;;;;;12.82;8.80;;;17.80;99.90;;;;;;5052790;28;20041;-73
2022/09/05 04:24:39;;;;;;;15.43;8.13;;;17.80;99.90;;;;;;5042271;28;20061;-72
2022/09/05 04:27:20;;;;;;;11.75;8.70;;;17.70;99.90;;;;;;4947058;29;20466;-73
2022/09/05 04:30:21;;;;;;;9.02;8.13;;;17.70;99.90;;;;;;4952727;29;20047;-72
2022/09/05 04:32:58;;;;;;;9.95;8.73;;;17.60;99.90;;;;;;5019905;28;20049;-72
2022/09/05 04:35:54;;;;;;;9.63;8.63;;;17.60;99.90;;;;;;5034503;28;20056;-72
2022/09/05 04:38:39;;;;;;;10.55;9.05;;;17.60;99.90;;;;;;5017223;28;20033;-72
2022/09/05 04:41:22;;;;;;;9.52;8.48;;;17.50;99.90;;;;;;5034025;28;20135;-72
2022/09/05 04:43:55;;;;;;;10.23;8.48;;;17.50;99.90;;;;;;5034116;28;20041;-72
2022/09/05 04:46:23;;;;;;;9.85;8.85;;;17.50;99.90;;;;;;5034196;28;20045;-73
2022/09/05 04:49:17;;;;;;;10.05;8.93;;;17.40;99.90;;;;;;5034439;28;20041;-72
2022/09/05 04:52:01;;;;;;;10.20;9.20;;;17.50;99.90;;;;;;5034148;28;20076;-73
2022/09/05 04:54:27;;;;;;;;;;;17.40;99.90;;;;;;5034559;28;20052;-72
2022/09/05 04:57:21;;;;;;;9.50;8.45;;;17.40;99.90;;;;;;5034347;28;19924;-72
2022/09/05 05:00:07;;;;;;;9.82;8.93;;;17.40;99.90;;;;;;5034178;28;20041;-72
2022/09/05 05:02:36;;;;;;;10.55;8.45;;;17.40;99.90;;;;;;5034427;28;20411;-72
2022/09/05 05:05:07;;;;;;;10.63;9.52;;;17.40;99.90;;;;;;5033751;28;20456;-72
2022/09/05 05:07:56;;;;;;;12.57;10.07;;;17.40;99.90;;;;;;5016603;28;20045;-72
2022/09/05 05:10:44;;;;;;;9.95;9.00;;;17.40;99.90;;;;;;5033836;28;20431;-72
2022/09/05 05:13:19;;;;;;;9.35;8.45;;;17.40;99.90;;;;;;5026072;28;20342;-72
2022/09/05 05:15:53;;;;;;;11.68;9.73;;;17.40;99.90;;;;;;5034115;28;20049;-72
2022/09/05 05:18:22;;;;;;;;;;;17.40;99.90;;;;;;5016518;28;20049;-72
2022/09/05 05:21:11;;;;;;;9.77;8.75;;;17.40;99.90;;;;;;5033889;28;19932;-72
2022/09/05 05:23:45;;;;;;;12.90;10.48;;;17.30;99.90;;;;;;5040718;28;20467;-72
2022/09/05 05:26:21;;;;;;;11.25;9.52;;;17.30;99.90;;;;;;5019295;28;20099;-71
2022/09/05 05:28:55;;;;;;;14.82;9.65;;;17.40;99.90;;;;;;5036324;28;20513;-71
2022/09/05 05:31:27;;;;;;;10.70;9.63;;;17.30;99.90;;;;;;5037303;28;20053;-74
2022/09/05 05:34:00;;;;;;;12.20;9.45;;;17.40;99.90;;;;;;5045692;28;20045;-73
2022/09/05 05:36:33;;;;;;;16.00;11.65;;;17.40;99.90;;;;;;5054350;28;20044;-74
2022/09/05 05:39:23;;;;;;;14.73;11.95;;;17.40;99.90;;;;;;5054515;28;20041;-74
2022/09/05 05:41:53;;;;;;;11.50;10.40;;;17.40;99.90;;;;;;5043624;28;20057;-74
2022/09/05 05:44:26;;;;;;;11.57;9.32;;;17.50;99.90;;;;;;5055317;28;20052;-74
2022/09/05 05:47:07;;;;;;;11.60;9.48;;;17.50;99.90;;;;;;5054469;28;20083;-75
2022/09/05 05:49:42;;;;;;;11.10;9.95;;;17.60;99.90;;;;;;5054220;28;20077;-74
2022/09/05 05:52:40;;;;;;;11.77;9.23;;;17.60;99.90;;;;;;5055964;28;20045;-73
2022/09/05 05:55:19;;;;;;;11.63;10.35;;;17.60;99.90;;;;;;5050414;28;20053;-76
2022/09/05 05:57:52;;;;;;;17.20;10.50;;;17.70;99.90;;;;;;5049117;28;20107;-75
2022/09/05 06:00:50;;;;;;;13.88;10.77;;;17.70;99.90;;;;;;5039431;28;20045;-75
2022/09/05 06:03:44;;;;;;;12.73;9.82;;;17.80;99.90;;;;;;5021860;28;20044;-75
2022/09/05 06:06:40;;;;;;;10.77;9.73;;;17.80;99.90;;;;;;5039282;28;20037;-74
2022/09/05 06:09:12;;;;;;;11.27;10.18;;;17.80;99.90;;;;;;5016322;28;20064;-74
2022/09/05 06:12:05;;;;;;;13.93;9.88;;;17.80;99.90;;;;;;5055524;28;20051;-75
2022/09/05 06:14:55;;;;;;;11.18;9.95;;;17.90;99.90;;;;;;5054955;28;20041;-75
2022/09/05 06:17:58;;;;;;;14.20;9.55;;;18.00;99.90;;;;;;5048466;28;20045;-74
2022/09/05 06:20:51;;;;;;;13.57;11.15;;;18.00;99.90;;;;;;5048645;28;20068;-76
2022/09/05 06:23:34;;;;;;;12.02;10.80;;;18.10;99.90;;;;;;5048360;28;20053;-74
2022/09/05 06:26:28;;;;;;;12.48;10.80;;;18.10;99.90;;;;;;5036321;28;20060;-76
2022/09/05 06:29:20;;;;;;;14.27;10.48;;;18.20;99.90;;;;;;5036264;28;20132;-77
2022/09/05 06:31:49;;;;;;;12.57;11.10;;;18.20;99.90;;;;;;5036330;28;20050;-73
2022/09/05 06:34:32;;;;;;;14.20;11.35;;;18.30;99.90;;;;;;5036416;28;20463;-74
2022/09/05 06:37:11;;;;;;;12.73;11.45;;;18.30;99.90;;;;;;5026859;28;20523;-73
2022/09/05 06:40:04;;;;;;;12.27;10.88;;;18.40;99.90;;;;;;5036057;28;20068;-72
2022/09/05 06:42:54;;;;;;;11.45;10.35;;;18.40;99.90;;;;;;5035499;28;20391;-73
2022/09/05 06:45:52;;;;;;;11.70;10.45;;;18.40;99.90;;;;;;5035932;28;20547;-72
2022/09/05 06:48:30;;;;;;;13.23;11.82;;;18.50;99.90;;;;;;5035843;28;20064;-72
2022/09/05 06:51:25;;;;;;;12.52;11.20;;;18.60;99.90;;;;;;5036114;28;20041;-73
2022/09/05 06:53:57;;;;;;;11.90;10.63;;;18.60;99.90;;;;;;5029310;28;20095;-72
2022/09/05 06:56:48;;;;;;;13.52;10.45;;;18.70;99.90;;;;;;5036004;28;20053;-73
2022/09/05 06:59:50;;;;;;;13.82;11.35;;;18.70;99.90;;;;;;5035920;28;20050;-72
2022/09/05 07:02:33;;;;;;;14.13;11.23;;;18.80;99.90;;;;;;5017658;28;20057;-70
2022/09/05 07:05:19;;;;;;;16.30;11.10;;;19.00;99.90;;;;;;5035469;28;20041;-71
2022/09/05 07:07:53;;;;;;;11.63;9.82;;;19.10;99.90;;;;;;5035567;28;20041;-74
2022/09/05 07:10:28;;;;;;;12.60;11.07;;;19.20;99.90;;;;;;5035904;28;20133;-71
2022/09/05 07:13:16;;;;;;;13.15;10.95;;;19.30;99.90;;;;;;5035705;28;20095;-72
2022/09/05 07:15:55;;;;;;;13.23;10.93;;;19.30;99.90;;;;;;5035006;28;20424;-71
2022/09/05 07:18:30;;;;;;;12.65;10.63;;;19.50;99.90;;;;;;5032668;28;20116;-71
2022/09/05 07:21:04;;;;;;;11.60;10.40;;;19.60;99.90;;;;;;5035548;28;20037;-73
2022/09/05 07:23:44;;;;;;;16.90;11.35;;;19.60;99.90;;;;;;5031708;28;20343;-71
2022/09/05 07:26:11;;;;;;;14.80;10.63;;;19.70;99.90;;;;;;5052304;28;20066;-71
2022/09/05 07:28:42;;;;;;;11.30;10.25;;;19.80;99.90;;;;;;5052589;28;21763;-73
2022/09/05 07:31:22;;;;;;;11.95;10.75;;;19.90;99.90;;;;;;5054102;28;20048;-73
2022/09/05 07:33:49;;;;;;;12.90;10.85;;;19.90;99.90;;;;;;5053727;28;20037;-73
2022/09/05 07:36:22;;;;;;;15.27;10.20;;;20.00;99.90;;;;;;5052261;28;20065;-73
2022/09/05 07:38:50;;;;;;;13.10;10.73;;;20.10;99.90;;;;;;5053709;28;20102;-74
2022/09/05 07:41:29;;;;;;;13.02;11.50;;;20.10;99.90;;;;;;5047108;28;20049;-74
2022/09/05 07:44:14;;;;;;;12.80;10.95;;;20.20;99.90;;;;;;5037845;28;20045;-73
2022/09/05 07:46:41;;;;;;;14.07;12.07;;;20.30;99.90;;;;;;5037540;28;20045;-73
2022/09/05 07:49:28;;;;;;;14.38;12.52;;;20.30;99.90;;;;;;5036451;28;20046;-74
2022/09/05 07:51:59;;;;;;;13.68;12.25;;;20.40;99.90;;;;;;5047102;28;20049;-72
2022/09/05 07:54:28;;;;;;;14.52;11.30;;;20.50;99.90;;;;;;5019597;28;20096;-73
2022/09/05 07:56:58;;;;;;;17.63;12.50;;;20.60;99.90;;;;;;5036969;28;20372;-72
2022/09/05 07:59:29;;;;;;;13.32;11.73;;;20.70;99.90;;;;;;5037393;28;20451;-72
2022/09/05 08:01:57;;;;;;;13.50;11.85;;;20.70;99.90;;;;;;5037579;28;20049;-71
2022/09/05 08:04:34;;;;;;;13.40;11.23;;;20.70;99.90;;;;;;5053842;28;20040;-72
2022/09/05 08:07:13;;;;;;;14.55;11.02;;;20.80;99.90;;;;;;5061834;28;20045;-73
2022/09/05 08:09:55;;;;;;;19.90;11.70;;;20.90;99.90;;;;;;5038565;28;20041;-71
2022/09/05 08:12:35;;;;;;;12.32;11.02;;;20.90;99.90;;;;;;5019793;28;20384;-72
2022/09/05 08:15:15;;;;;;;11.25;10.05;;;21.00;99.90;;;;;;5037471;28;20056;-73
2022/09/05 08:17:59;;;;;;;14.95;12.10;;;21.00;99.90;;;;;;5035939;28;20387;-72
2022/09/05 08:20:50;;;;;;;16.83;11.23;;;21.10;99.90;;;;;;5036047;28;20041;-72
2022/09/05 08:23:31;;;;;;;15.25;11.63;;;21.10;99.90;;;;;;5046509;28;20068;-73
2022/09/05 08:26:10;;;;;;;15.43;12.27;;;21.20;99.90;;;;;;5034216;28;20140;-73
2022/09/05 08:29:12;;;;;;;12.25;11.00;;;21.30;99.90;;;;;;5033916;28;20472;-72
2022/09/05 08:31:50;;;;;;;12.70;10.38;;;21.40;99.90;;;;;;5020922;28;20087;-73
2022/09/05 08:34:39;;;;;;;13.75;11.27;;;21.40;99.90;;;;;;5034535;28;20077;-73
2022/09/05 08:37:06;;;;;;;11.95;10.60;;;21.50;99.90;;;;;;5025290;28;20041;-72
2022/09/05 08:39:33;;;;;;;13.85;10.48;;;21.50;99.90;;;;;;5016663;28;20128;-71
2022/09/05 08:42:32;;;;;;;11.07;8.82;;;21.60;99.90;;;;;;5034286;28;20046;-71
2022/09/05 08:45:20;;;;;;;11.68;8.52;;;21.70;99.90;;;;;;5027813;28;20501;-73
2022/09/05 08:48:05;;;;;;;13.55;9.85;;;21.80;99.90;;;;;;5026787;28;20053;-72
2022/09/05 08:50:58;;;;;;;12.40;9.25;;;21.90;99.90;;;;;;5024905;28;20135;-73
2022/09/05 08:53:52;;;;;;;14.13;9.95;;;22.00;99.90;;;;;;5034074;28;20037;-72
2022/09/05 08:56:24;;;;;;;9.80;8.83;;;22.10;99.90;;;;;;5033480;28;20107;-73
2022/09/05 08:58:56;;;;;;;10.98;8.70;;;22.20;99.90;;;;;;5034248;28;20296;-72
2022/09/05 09:01:33;;;;;;;11.90;9.07;;;22.40;99.90;;;;;;5016619;28;20061;-72
2022/09/05 09:04:27;;;;;;;10.93;8.57;;;22.50;99.90;;;;;;5024520;28;20037;-72
2022/09/05 09:07:06;;;;;;;12.32;8.60;;;22.70;99.90;;;;;;5021440;28;20230;-72
2022/09/05 09:09:43;;;;;;;10.80;8.43;;;22.70;99.90;;;;;;5034274;28;20057;-72
2022/09/05 09:12:47;;;;;;;10.98;7.88;;;22.80;99.90;;;;;;5024667;28;20808;-73
2022/09/05 09:15:27;;;;;;;12.77;8.68;;;22.90;99.90;;;;;;5030255;28;20088;-72
2022/09/05 09:17:54;;;;;;;8.55;7.35;;;23.00;99.90;;;;;;5020816;28;20088;-73
2022/09/05 09:20:37;;;;;;;11.93;6.70;;;23.10;99.90;;;;;;5038350;28;20124;-72
2022/09/05 09:23:09;;;;;;;11.83;7.93;;;23.10;99.90;;;;;;5053075;28;20053;-72
2022/09/05 09:25:54;;;;;;;11.65;7.85;;;23.20;99.90;;;;;;5078016;28;20098;-74
2022/09/05 09:28:44;;;;;;;10.07;7.75;;;23.20;99.90;;;;;;5047286;28;20092;-72
2022/09/05 09:31:28;;;;;;;8.23;7.43;;;23.40;99.90;;;;;;5039065;28;20393;-72
2022/09/05 09:34:12;;;;;;;;;;;23.40;99.90;;;;;;5056016;28;20044;-73
2022/09/05 09:37:00;;;;;;;9.75;7.07;;;23.50;99.90;;;;;;5054499;28;19920;-74
2022/09/05 09:39:58;;;;;;;9.50;7.10;;;23.60;99.90;;;;;;5054410;28;20041;-73
2022/09/05 09:42:32;;;;;;;11.38;7.70;;;23.70;99.90;;;;;;5054282;28;20079;-70
2022/09/05 09:45:07;;;;;;;8.52;7.53;;;23.80;99.90;;;;;;5054630;28;20397;-72
2022/09/05 09:47:41;;;;;;;11.15;9.10;;;23.80;99.90;;;;;;5038885;28;20041;-73
2022/09/05 09:50:27;;;;;;;10.82;8.70;;;23.90;99.90;;;;;;5022802;28;20056;-72
2022/09/05 09:52:58;;;;;;;8.95;7.75;;;24.00;99.90;;;;;;4981795;28;20041;-72
2022/09/05 09:55:45;;;;;;;9.32;8.00;;;24.10;99.90;;;;;;5022230;28;20049;-73
2022/09/05 09:58:46;;;;;;;8.52;7.68;;;24.20;99.90;;;;;;5039204;28;20053;-73
2022/09/05 10:01:28;;;;;;;8.30;7.50;;;24.30;99.90;;;;;;5039059;28;20037;-73
2022/09/05 10:04:14;;;;;;;8.15;7.32;;;24.30;99.80;;;;;;5044942;28;20099;-71
2022/09/05 10:07:17;;;;;;;9.38;8.40;;;24.40;99.80;;;;;;5064763;28;20052;-72
2022/09/05 10:10:17;;;;;;;11.98;8.32;;;24.40;99.40;;;;;;5063966;28;20222;-71
2022/09/05 10:13:10;;;;;;;9.13;8.15;;;24.50;98.70;;;;;;5064520;28;20065;-71
2022/09/05 10:16:21;;;;;;;11.00;8.10;;;24.60;99.00;;;;;;5064071;28;20463;-71
2022/09/05 10:18:46;;;;;;;8.60;7.70;;;24.60;99.00;;;;;;5049216;28;20045;-72
2022/09/05 10:21:24;;;;;;;9.85;6.45;;;24.60;99.00;;;;;;5049772;28;20176;-74
2022/09/05 10:24:15;;;;;;;8.18;6.10;;;24.70;98.80;;;;;;5017493;28;20070;-72
2022/09/05 10:27:02;;;;;;;7.53;6.63;;;24.80;98.60;;;;;;5027061;28;20124;-74
2022/09/05 10:29:37;;;;;;;6.60;6.00;;;24.80;98.10;;;;;;5025675;28;20081;-73
2022/09/05 10:32:07;;;;;;;8.95;5.90;;;24.80;98.20;;;;;;5030533;28;20185;-73
2022/09/05 10:34:55;;;;;;;6.07;5.47;;;24.80;98.30;;;;;;5029476;28;20092;-72
2022/09/05 10:37:25;;;;;;;7.60;6.45;;;24.90;97.90;;;;;;5027709;28;20037;-72
2022/09/05 10:39:51;;;;;;;6.50;5.90;;;25.00;97.40;;;;;;5018715;28;20117;-74
2022/09/05 10:42:33;;;;;;;8.55;6.00;;;25.00;97.50;;;;;;5018954;28;20116;-73
2022/09/05 10:45:03;;;;;;;6.93;6.22;;;25.20;97.00;;;;;;5018424;28;20141;-72
2022/09/05 10:47:47;;;;;;;8.35;6.13;;;25.30;96.60;;;;;;5050315;28;20099;-72
2022/09/05 10:50:15;;;;;;;6.55;5.95;;;25.30;96.50;;;;;;5018296;28;20512;-72
2022/09/05 10:52:49;;;;;;;7.45;6.05;;;25.40;96.50;;;;;;5033169;28;20132;-72
2022/09/05 10:55:35;;;;;;;6.82;6.15;;;25.60;96.20;;;;;;5034777;28;20101;-73
2022/09/05 10:58:20;;;;;;;8.48;6.03;;;25.90;95.70;;;;;;5005409;28;20465;-73
2022/09/05 11:01:08;;;;;;;5.97;5.20;;;25.90;95.70;;;;;;5018769;28;20088;-72
2022/09/05 11:04:10;;;;;;;7.07;5.10;;;26.00;94.70;;;;;;5018850;28;20122;-73
2022/09/05 11:06:41;;;;;;;7.78;5.10;;;26.00;94.80;;;;;;5018165;28;20052;-73
2022/09/05 11:09:31;;;;;;;9.23;5.43;;;26.00;94.70;;;;;;5018498;28;20057;-73
2022/09/05 11:12:10;;;;;;;7.55;4.70;;;26.20;94.20;;;;;;5017831;28;20080;-73
2022/09/05 11:14:49;;;;;;;6.10;5.05;;;26.20;94.30;;;;;;5017259;28;20069;-73
2022/09/05 11:17:25;;;;;;;6.03;4.35;;;26.30;93.80;;;;;;5032571;28;20072;-73
2022/09/05 11:20:05;;;;;;;5.65;5.13;;;26.30;93.80;;;;;;5032374;28;20053;-73
2022/09/05 11:22:38;;;;;;;5.18;4.68;;;26.30;93.80;;;;;;5016614;28;20057;-74
2022/09/05 11:25:15;;;;;;;5.22;4.72;;;26.30;93.80;;;;;;5017890;28;20057;-74
2022/09/05 11:27:44;;;;;;;9.07;5.47;;;26.30;93.60;;;;;;5038015;28;20049;-74
2022/09/05 11:30:16;;;;;;;5.40;4.75;;;26.60;93.50;;;;;;5037303;28;20046;-73
2022/09/05 11:33:29;;;;;;;7.65;5.00;;;26.60;93.30;;;;;;5036872;28;20026;-74
2022/09/05 11:36:15;;;;;;;7.25;4.70;;;26.60;93.00;;;;;;5036814;28;20468;-73
2022/09/05 11:39:11;;;;;;;5.72;4.50;;;26.70;92.80;;;;;;5036857;28;20041;-73
2022/09/05 11:41:37;;;;;;;6.13;4.63;;;26.90;91.80;;;;;;5019271;28;20070;-74
2022/09/05 11:44:34;;;;;;;5.85;4.93;;;26.90;91.80;;;;;;5037454;28;20041;-73
2022/09/05 11:47:08;;;;;;;7.68;4.80;;;27.00;91.40;;;;;;5018672;28;20057;-73
2022/09/05 11:49:59;;;;;;;5.35;4.57;;;27.10;91.90;;;;;;5037736;28;20050;-68
2022/09/05 11:52:50;;;;;;;5.72;4.70;;;27.10;91.40;;;;;;5036331;28;20064;-68
2022/09/05 11:55:48;;;;;;;6.72;4.25;;;27.00;91.10;;;;;;5036275;28;20052;-69
2022/09/05 11:58:28;;;;;;;5.60;4.65;;;27.00;91.20;;;;;;5036462;28;20068;-72
2022/09/05 12:01:19;;;;;;;6.18;4.38;;;27.00;90.80;;;;;;5038738;28;20379;-72
2022/09/05 12:04:26;;;;;;;7.05;4.55;;;27.00;91.00;;;;;;5051804;28;20095;-72
2022/09/05 12:07:09;;;;;;;5.28;4.20;;;27.00;90.90;;;;;;5020695;28;20069;-72
2022/09/05 12:10:14;;;;;;;5.57;4.20;;;27.00;90.80;;;;;;5051460;28;20445;-72
2022/09/05 12:13:06;;;;;;;5.47;4.43;;;27.20;90.50;;;;;;5051693;28;20064;-72
2022/09/05 12:15:36;;;;;;;5.32;4.57;;;27.50;90.60;;;;;;5038170;28;20068;-71
2022/09/05 12:18:18;;;;;;;7.68;4.97;;;27.50;90.40;;;;;;5034539;28;20057;-72
2022/09/05 12:21:21;;;;;;;4.97;4.28;;;27.70;90.00;;;;;;5036120;28;20045;-72
2022/09/05 12:24:13;;;;;;;7.05;4.25;;;27.90;89.60;;;;;;5035928;28;20081;-72
2022/09/05 12:27:02;;;;;;;5.00;4.07;;;28.10;86.10;;;;;;5018768;28;20045;-73
2022/09/05 12:29:32;;;;;;;5.90;4.32;;;28.20;86.90;;;;;;5053038;28;20127;-72
2022/09/05 12:32:00;;;;;;;6.53;3.90;;;28.20;87.50;;;;;;5051198;28;20044;-72
2022/09/05 12:34:49;;;;;;;7.28;3.75;;;28.30;87.20;;;;;;5052530;28;20175;-72
2022/09/05 12:37:26;;;;;;;5.57;3.58;;;28.40;84.90;;;;;;5027398;28;20183;-72
2022/09/05 12:40:09;;;;;;;6.88;3.50;;;28.30;84.20;;;;;;5053241;28;20045;-72
2022/09/05 12:42:55;;;;;;;4.10;3.60;;;28.40;83.70;;;;;;5054921;28;20367;-72
2022/09/05 12:45:40;;;;;;;5.82;3.85;;;28.40;81.90;;;;;;5055272;28;20117;-73
2022/09/05 12:48:12;;;;;;;4.10;3.50;;;28.30;83.20;;;;;;5055250;28;20118;-72
2022/09/05 12:50:50;;;;;;;6.32;3.55;;;28.30;83.50;;;;;;5057322;28;20052;-72
2022/09/05 12:53:18;;;;;;;4.03;3.30;;;28.20;83.60;;;;;;5055416;28;20049;-72
2022/09/05 12:56:04;;;;;;;5.78;3.50;;;28.20;83.70;;;;;;5053617;28;20045;-74
2022/09/05 12:59:16;;;;;;;4.93;3.30;;;28.30;84.50;;;;;;5040642;28;20045;-74
2022/09/05 13:02:02;;;;;;;4.28;3.05;;;28.60;83.30;;;;;;5040155;28;20045;-73
2022/09/05 13:04:40;;;;;;;3.55;3.08;;;28.80;83.20;;;;;;5055214;28;20778;-72
2022/09/05 13:07:37;;;;;;;4.60;3.30;;;29.00;82.90;;;;;;5047059;28;20400;-71
2022/09/05 13:10:20;;;;;;;4.05;3.40;;;29.00;81.90;;;;;;5054689;28;20056;-70
2022/09/05 13:12:55;;;;;;;4.90;3.78;;;29.10;81.40;;;;;;5054832;28;20041;-71
2022/09/05 13:15:35;;;;;;;3.38;3.05;;;29.20;80.80;;;;;;5054772;28;20049;-71
2022/09/05 13:18:09;;;;;;;3.88;2.92;;;29.30;81.10;;;;;;5055214;28;20455;-71
2022/09/05 13:20:44;;;;;;;3.25;2.88;;;29.40;79.90;;;;;;5039610;28;20037;-71
2022/09/05 13:23:27;;;;;;;6.00;2.97;;;29.60;78.70;;;;;;5040141;28;20427;-72
2022/09/05 13:25:57;;;;;;;6.05;3.40;;;30.00;78.00;;;;;;5039893;28;20439;-72
2022/09/05 13:28:26;;;;;;;5.80;3.60;;;30.30;78.60;;;;;;5039178;28;20045;-72
2022/09/05 13:30:56;;;;;;;4.65;2.75;;;30.60;77.70;;;;;;5055219;28;20073;-71
2022/09/05 13:33:36;;;;;;;3.47;2.50;;;30.90;76.60;;;;;;5054698;28;20041;-72
2022/09/05 13:36:04;;;;;;;3.92;3.03;;;31.50;76.30;;;;;;5054754;28;20049;-72
2022/09/05 13:39:00;;;;;;;4.40;2.67;;;31.90;75.40;;;;;;5038864;28;20041;-72
2022/09/05 13:41:30;;;;;;;5.30;2.92;;;33.00;74.50;;;;;;5055582;28;20478;-72
2022/09/05 13:43:58;;;;;;;5.70;2.80;;;34.10;72.20;;;;;;5054517;28;20033;-72
2022/09/05 13:46:52;;;;;;;4.65;2.92;;;34.60;70.70;;;;;;5045200;28;20045;-73
2022/09/05 13:49:35;;;;;;;3.85;2.47;;;35.10;68.60;;;;;;5021389;28;20053;-72
2022/09/05 13:52:21;;;;;;;5.70;2.45;;;34.40;66.10;;;;;;5037789;28;20546;-73
2022/09/05 13:54:54;;;;;;;3.80;2.60;;;34.20;63.10;;;;;;5054497;28;20132;-72
2022/09/05 13:57:22;;;;;;;3.30;2.38;;;33.80;64.10;;;;;;5054225;28;20324;-72
2022/09/05 14:00:09;;;;;;;4.55;2.85;;;33.70;64.10;;;;;;5055665;28;20182;-72
2022/09/05 14:03:03;;;;;;;6.38;2.97;;;34.60;61.00;;;;;;5055733;28;20041;-73